createdAt,value
2017-04-01T00:00:55.307Z,99.90
2017-04-01T00:02:01.953Z,99.90
2017-04-01T00:03:07.955Z,99.90
2017-04-01T00:04:14.041Z,99.90
2017-04-01T00:05:20.169Z,99.90
2017-04-01T00:06:26.042Z,99.90
2017-04-01T00:07:32.482Z,99.90
2017-04-01T00:08:39.374Z,99.90
2017-04-01T00:09:46.311Z,99.90
2017-04-01T00:10:52.489Z,99.90
2017-04-01T00:11:58.605Z,99.90
2017-04-01T00:13:07.334Z,99.90
2017-04-01T00:14:13.258Z,99.90
2017-04-01T00:15:20.180Z,99.90
2017-04-01T00:16:26.272Z,99.90
2017-04-01T00:17:32.471Z,99.90
2017-04-01T00:18:39.180Z,99.90
2017-04-01T00:19:45.294Z,99.90
2017-04-01T00:20:52.703Z,99.90
2017-04-01T00:21:58.746Z,99.90
2017-04-01T00:23:04.683Z,99.90
2017-04-01T00:24:11.011Z,99.90
2017-04-01T00:25:17.197Z,99.90
2017-04-01T00:26:23.385Z,99.90
2017-04-01T00:27:29.356Z,99.90
2017-04-01T00:28:39.564Z,99.90
2017-04-01T00:29:46.022Z,99.90
2017-04-01T00:30:52.113Z,99.90
2017-04-01T00:31:58.370Z,99.90
2017-04-01T00:33:04.329Z,99.90
2017-04-01T00:34:11.513Z,99.90
2017-04-01T00:35:17.969Z,99.90
2017-04-01T00:36:25.065Z,99.90
2017-04-01T00:37:31.387Z,99.90
2017-04-01T00:38:38.044Z,99.90
2017-04-01T00:39:44.186Z,99.90
2017-04-01T00:40:51.649Z,99.90
2017-04-01T00:41:58.496Z,99.90
2017-04-01T00:43:04.854Z,99.90
2017-04-01T00:44:11.018Z,99.90
2017-04-01T00:45:17.286Z,99.90
2017-04-01T00:46:23.520Z,99.90
2017-04-01T00:47:29.541Z,99.90
2017-04-01T00:48:36.585Z,99.90
2017-04-01T00:49:43.479Z,99.90
2017-04-01T00:50:49.470Z,99.90
2017-04-01T00:51:55.481Z,99.90
2017-04-01T00:53:01.493Z,99.90
2017-04-01T00:54:07.565Z,99.90
2017-04-01T00:55:13.697Z,99.90
2017-04-01T00:56:21.071Z,99.90
2017-04-01T00:57:27.475Z,99.90
2017-04-01T00:58:33.416Z,99.90
2017-04-01T00:59:39.696Z,99.90
2017-04-01T01:00:45.498Z,99.90
2017-04-01T01:01:51.556Z,99.90
2017-04-01T01:02:58.759Z,99.90
2017-04-01T01:04:04.864Z,99.90
2017-04-01T01:05:10.941Z,99.90
2017-04-01T01:06:17.050Z,99.90
2017-04-01T01:07:22.980Z,99.90
2017-04-01T01:08:29.112Z,99.90
2017-04-01T01:09:35.204Z,99.90
2017-04-01T01:10:42.276Z,99.90
2017-04-01T01:11:48.207Z,99.90
2017-04-01T01:12:56.147Z,99.90
2017-04-01T01:14:02.501Z,99.90
2017-04-01T01:15:08.548Z,99.90
2017-04-01T01:16:14.856Z,99.90
2017-04-01T01:17:20.808Z,99.90
2017-04-01T01:18:27.628Z,99.90
2017-04-01T01:19:33.778Z,99.90
2017-04-01T01:20:39.880Z,99.90
2017-04-01T01:21:49.524Z,99.90
2017-04-01T01:22:55.670Z,99.90
2017-04-01T01:24:01.787Z,99.90
2017-04-01T01:25:08.012Z,99.90
2017-04-01T01:26:14.346Z,99.90
2017-04-01T01:27:20.986Z,99.90
2017-04-01T01:28:28.549Z,99.90
2017-04-01T01:29:35.353Z,99.90
2017-04-01T01:30:42.485Z,99.90
2017-04-01T01:31:48.587Z,99.90
2017-04-01T01:32:54.611Z,99.90
2017-04-01T01:34:00.872Z,99.90
2017-04-01T01:35:07.832Z,99.90
2017-04-01T01:36:14.117Z,99.90
2017-04-01T01:37:19.983Z,99.90
2017-04-01T01:38:26.005Z,99.90
2017-04-01T01:39:32.039Z,99.90
2017-04-01T01:40:37.924Z,99.90
2017-04-01T01:41:44.073Z,99.90
2017-04-01T01:42:50.806Z,99.90
2017-04-01T01:43:56.891Z,99.90
2017-04-01T01:45:03.069Z,99.90
2017-04-01T01:46:08.947Z,99.90
2017-04-01T01:47:15.284Z,99.90
2017-04-01T01:48:21.287Z,99.90
2017-04-01T01:49:27.235Z,99.90
2017-04-01T01:50:33.204Z,99.90
2017-04-01T01:51:39.304Z,99.90
2017-04-01T01:52:45.524Z,99.90
2017-04-01T01:53:51.490Z,99.90
2017-04-01T01:54:57.588Z,99.90
2017-04-01T01:56:03.785Z,99.90
2017-04-01T01:57:09.969Z,99.90
2017-04-01T01:58:16.263Z,99.90
2017-04-01T01:59:22.142Z,99.90
2017-04-01T02:00:28.216Z,99.90
2017-04-01T02:01:34.359Z,99.90
2017-04-01T02:02:40.597Z,99.90
2017-04-01T02:03:46.656Z,99.90
2017-04-01T02:04:52.843Z,99.90
2017-04-01T02:05:59.049Z,99.90
2017-04-01T02:07:04.916Z,99.90
2017-04-01T02:08:10.954Z,99.90
2017-04-01T02:09:17.108Z,99.90
2017-04-01T02:10:23.052Z,99.90
2017-04-01T02:11:28.993Z,99.90
2017-04-01T02:12:35.091Z,99.90
2017-04-01T02:13:41.229Z,99.90
2017-04-01T02:14:47.199Z,99.90
2017-04-01T02:15:53.128Z,99.90
2017-04-01T02:16:59.095Z,99.90
2017-04-01T02:18:05.155Z,99.90
2017-04-01T02:19:11.157Z,99.90
2017-04-01T02:20:17.344Z,99.90
2017-04-01T02:21:23.248Z,99.90
2017-04-01T02:22:29.291Z,99.90
2017-04-01T02:23:35.240Z,99.90
2017-04-01T02:24:41.307Z,99.90
2017-04-01T02:25:47.701Z,99.90
2017-04-01T02:26:53.596Z,99.90
2017-04-01T02:27:59.560Z,99.90
2017-04-01T02:29:05.636Z,99.90
2017-04-01T02:30:11.582Z,99.90
2017-04-01T02:31:17.638Z,99.90
2017-04-01T02:32:23.665Z,99.90
2017-04-01T02:33:29.698Z,99.90
2017-04-01T02:34:35.781Z,99.90
2017-04-01T02:35:41.912Z,99.90
2017-04-01T02:36:48.629Z,99.90
2017-04-01T02:37:54.563Z,99.90
2017-04-01T02:39:00.589Z,99.90
2017-04-01T02:40:07.405Z,99.90
2017-04-01T02:41:13.447Z,99.90
2017-04-01T02:42:19.644Z,99.90
2017-04-01T02:43:25.759Z,99.90
2017-04-01T02:44:31.900Z,99.90
2017-04-01T02:45:38.004Z,99.90
2017-04-01T02:46:44.148Z,99.90
2017-04-01T02:47:50.290Z,99.90
2017-04-01T02:48:56.495Z,99.90
2017-04-01T02:50:02.539Z,99.90
2017-04-01T02:51:08.643Z,99.90
2017-04-01T02:52:14.692Z,99.90
2017-04-01T02:53:20.800Z,99.90
2017-04-01T02:54:26.780Z,99.90
2017-04-01T02:55:32.780Z,99.90
2017-04-01T02:56:38.848Z,99.90
2017-04-01T02:57:44.962Z,99.90
2017-04-01T02:58:51.240Z,99.90
2017-04-01T02:59:57.152Z,99.90
2017-04-01T03:01:03.101Z,99.90
2017-04-01T03:02:09.224Z,99.90
2017-04-01T03:03:15.433Z,99.90
2017-04-01T03:04:21.678Z,99.90
2017-04-01T03:05:27.776Z,99.90
2017-04-01T03:06:33.812Z,99.90
2017-04-01T03:07:39.819Z,99.90
2017-04-01T03:08:45.836Z,99.90
2017-04-01T03:09:51.960Z,99.90
2017-04-01T03:10:57.784Z,99.90
2017-04-01T03:12:04.011Z,99.90
2017-04-01T03:13:10.019Z,99.90
2017-04-01T03:14:15.971Z,99.90
2017-04-01T03:15:22.227Z,99.90
2017-04-01T03:16:28.275Z,99.90
2017-04-01T03:17:34.412Z,99.90
2017-04-01T03:18:40.576Z,99.90
2017-04-01T03:19:46.419Z,99.90
2017-04-01T03:20:52.365Z,99.90
2017-04-01T03:21:58.464Z,99.90
2017-04-01T03:23:04.477Z,99.90
2017-04-01T03:24:10.484Z,99.90
2017-04-01T03:25:17.281Z,99.90
2017-04-01T03:26:23.695Z,99.90
2017-04-01T03:27:29.605Z,99.90
2017-04-01T03:28:35.634Z,99.90
2017-04-01T03:29:41.599Z,99.90
2017-04-01T03:30:47.642Z,99.90
2017-04-01T03:31:53.811Z,99.90
2017-04-01T03:32:59.808Z,99.90
2017-04-01T03:34:05.777Z,99.90
2017-04-01T03:35:12.567Z,99.90
2017-04-01T03:36:18.664Z,99.90
2017-04-01T03:37:24.768Z,99.90
2017-04-01T03:38:30.817Z,99.90
2017-04-01T03:39:36.908Z,99.90
2017-04-01T03:40:43.014Z,99.90
2017-04-01T03:41:49.036Z,99.90
2017-04-01T03:42:55.214Z,99.90
2017-04-01T03:44:01.178Z,99.90
2017-04-01T03:45:07.148Z,99.90
2017-04-01T03:46:13.206Z,99.90
2017-04-01T03:47:19.211Z,99.90
2017-04-01T03:48:25.480Z,99.90
2017-04-01T03:49:31.427Z,99.90
2017-04-01T03:50:37.608Z,99.90
2017-04-01T03:51:43.713Z,99.90
2017-04-01T03:52:49.677Z,99.90
2017-04-01T03:53:55.833Z,99.90
2017-04-01T03:55:01.805Z,99.90
2017-04-01T03:56:07.973Z,99.90
2017-04-01T03:57:13.980Z,99.90
2017-04-01T03:58:19.980Z,99.90
2017-04-01T03:59:26.172Z,99.90
2017-04-01T04:00:32.156Z,99.90
2017-04-01T04:01:38.149Z,99.90
2017-04-01T04:02:44.876Z,99.90
2017-04-01T04:03:50.863Z,99.90
2017-04-01T04:04:56.964Z,99.90
2017-04-01T04:06:02.975Z,99.90
2017-04-01T04:07:08.984Z,99.90
2017-04-01T04:08:15.063Z,99.90
2017-04-01T04:09:21.106Z,99.90
2017-04-01T04:10:27.155Z,99.90
2017-04-01T04:11:33.239Z,99.90
2017-04-01T04:12:39.423Z,99.90
2017-04-01T04:13:45.435Z,99.90
2017-04-01T04:14:51.482Z,99.90
2017-04-01T04:15:57.456Z,99.90
2017-04-01T04:17:03.420Z,99.90
2017-04-01T04:18:09.404Z,99.90
2017-04-01T04:19:15.380Z,99.90
2017-04-01T04:20:21.470Z,99.90
2017-04-01T04:21:27.625Z,99.90
2017-04-01T04:22:33.627Z,99.90
2017-04-01T04:23:39.845Z,99.90
2017-04-01T04:24:46.554Z,99.90
2017-04-01T04:25:52.724Z,99.90
2017-04-01T04:26:59.021Z,99.90
2017-04-01T04:28:05.175Z,99.90
2017-04-01T04:29:11.371Z,99.90
2017-04-01T04:30:17.396Z,99.90
2017-04-01T04:31:23.528Z,99.90
2017-04-01T04:32:29.612Z,99.90
2017-04-01T04:33:35.615Z,99.90
2017-04-01T04:34:41.749Z,99.90
2017-04-01T04:35:47.800Z,99.90
2017-04-01T04:36:54.025Z,99.90
2017-04-01T04:38:00.069Z,99.90
2017-04-01T04:39:06.145Z,99.90
2017-04-01T04:40:12.417Z,99.90
2017-04-01T04:41:18.363Z,99.90
2017-04-01T04:42:24.429Z,99.90
2017-04-01T04:43:30.709Z,99.90
2017-04-01T04:44:36.634Z,99.90
2017-04-01T04:45:42.602Z,99.90
2017-04-01T04:46:49.359Z,99.90
2017-04-01T04:47:55.368Z,99.90
2017-04-01T04:49:08.149Z,99.90
2017-04-01T04:50:14.176Z,99.90
2017-04-01T04:51:20.064Z,99.90
2017-04-01T04:52:27.093Z,99.90
2017-04-01T04:53:34.960Z,99.90
2017-04-01T04:54:44.384Z,99.90
2017-04-01T04:55:50.548Z,99.90
2017-04-01T04:56:56.612Z,99.90
2017-04-01T04:58:02.740Z,99.90
2017-04-01T04:59:08.836Z,99.90
2017-04-01T05:00:14.925Z,99.90
2017-04-01T05:01:20.989Z,99.90
2017-04-01T05:02:27.652Z,99.90
2017-04-01T05:03:33.904Z,99.90
2017-04-01T05:04:40.021Z,99.90
2017-04-01T05:05:46.282Z,99.90
2017-04-01T05:06:52.289Z,99.90
2017-04-01T05:07:58.495Z,99.90
2017-04-01T05:09:04.647Z,99.90
2017-04-01T05:10:10.677Z,99.90
2017-04-01T05:11:16.860Z,99.90
2017-04-01T05:12:22.883Z,99.90
2017-04-01T05:13:29.740Z,99.90
2017-04-01T05:14:35.738Z,99.90
2017-04-01T05:15:41.692Z,99.90
2017-04-01T05:16:47.671Z,99.90
2017-04-01T05:17:54.617Z,99.90
2017-04-01T05:19:00.740Z,99.90
2017-04-01T05:20:06.873Z,99.90
2017-04-01T05:21:12.844Z,99.90
2017-04-01T05:22:18.981Z,99.90
2017-04-01T05:23:25.247Z,99.90
2017-04-01T05:24:32.161Z,99.90
2017-04-01T05:25:38.196Z,99.90
2017-04-01T05:26:44.096Z,99.90
2017-04-01T05:27:50.220Z,99.90
2017-04-01T05:28:57.288Z,99.90
2017-04-01T05:30:03.388Z,99.90
2017-04-01T05:31:10.335Z,99.90
2017-04-01T05:32:16.444Z,99.90
2017-04-01T05:33:22.610Z,99.90
2017-04-01T05:34:28.715Z,99.90
2017-04-01T05:35:34.722Z,99.90
2017-04-01T05:36:40.796Z,99.90
2017-04-01T05:37:46.901Z,99.90
2017-04-01T05:38:52.980Z,99.90
2017-04-01T05:39:58.852Z,99.90
2017-04-01T05:41:04.902Z,99.90
2017-04-01T05:42:10.992Z,99.90
2017-04-01T05:43:17.003Z,99.90
2017-04-01T05:44:23.028Z,99.90
2017-04-01T05:45:29.020Z,99.90
2017-04-01T05:46:35.247Z,99.90
2017-04-01T05:47:41.627Z,99.90
2017-04-01T05:48:47.890Z,99.90
2017-04-01T05:49:54.219Z,99.90
2017-04-01T05:51:00.230Z,99.90
2017-04-01T05:52:06.404Z,99.90
2017-04-01T05:53:14.144Z,99.90
2017-04-01T05:54:20.511Z,99.90
2017-04-01T05:55:26.959Z,99.90
2017-04-01T05:56:33.888Z,99.90
2017-04-01T05:57:40.941Z,99.90
2017-04-01T05:58:47.011Z,99.90
2017-04-01T05:59:53.154Z,99.90
2017-04-01T06:00:59.165Z,99.90
2017-04-01T06:02:07.261Z,99.90
2017-04-01T06:03:14.001Z,99.90
2017-04-01T06:04:20.071Z,99.90
2017-04-01T06:05:26.771Z,99.90
2017-04-01T06:06:41.175Z,99.90
2017-04-01T06:07:49.094Z,99.90
2017-04-01T06:08:57.051Z,99.90
2017-04-01T06:10:03.269Z,99.90
2017-04-01T06:11:09.601Z,99.90
2017-04-01T06:12:15.870Z,99.90
2017-04-01T06:13:22.077Z,99.90
2017-04-01T06:14:28.742Z,99.90
2017-04-01T06:15:35.303Z,99.90
2017-04-01T06:16:42.201Z,99.90
2017-04-01T06:17:48.437Z,99.90
2017-04-01T06:18:56.045Z,99.90
2017-04-01T06:20:02.164Z,99.90
2017-04-01T06:21:08.273Z,99.90
2017-04-01T06:22:14.368Z,99.90
2017-04-01T06:23:20.752Z,99.90
2017-04-01T06:24:26.760Z,99.90
2017-04-01T06:25:32.934Z,99.90
2017-04-01T06:26:39.189Z,99.90
2017-04-01T06:27:45.259Z,99.90
2017-04-01T06:28:51.220Z,99.90
2017-04-01T06:29:57.343Z,99.90
2017-04-01T06:31:03.488Z,99.90
2017-04-01T06:32:09.613Z,99.90
2017-04-01T06:33:15.698Z,99.90
2017-04-01T06:34:21.884Z,99.90
2017-04-01T06:35:27.808Z,99.90
2017-04-01T06:36:33.896Z,99.90
2017-04-01T06:37:39.886Z,99.90
2017-04-01T06:38:45.904Z,99.90
2017-04-01T06:39:52.426Z,99.90
2017-04-01T06:40:59.425Z,99.90
2017-04-01T06:42:05.424Z,99.90
2017-04-01T06:43:11.699Z,99.90
2017-04-01T06:44:17.797Z,99.90
2017-04-01T06:45:23.699Z,99.90
2017-04-01T06:46:29.717Z,99.90
2017-04-01T06:47:35.847Z,99.90
2017-04-01T06:48:41.829Z,99.90
2017-04-01T06:49:47.751Z,99.90
2017-04-01T06:50:53.971Z,99.90
2017-04-01T06:52:00.133Z,99.90
2017-04-01T06:53:08.345Z,99.90
2017-04-01T06:54:14.340Z,99.90
2017-04-01T06:55:23.714Z,99.90
2017-04-01T06:56:30.056Z,99.90
2017-04-01T06:57:36.020Z,99.90
2017-04-01T06:58:42.128Z,99.90
2017-04-01T06:59:48.148Z,99.90
2017-04-01T07:00:54.199Z,99.90
2017-04-01T07:02:00.232Z,99.90
2017-04-01T07:03:06.275Z,99.90
2017-04-01T07:04:13.367Z,99.90
2017-04-01T07:05:19.564Z,99.90
2017-04-01T07:06:25.640Z,99.90
2017-04-01T07:07:31.873Z,99.90
2017-04-01T07:08:37.823Z,99.90
2017-04-01T07:09:44.556Z,99.90
2017-04-01T07:10:50.708Z,99.90
2017-04-01T07:11:57.432Z,99.90
2017-04-01T07:13:03.720Z,99.90
2017-04-01T07:14:09.681Z,99.90
2017-04-01T07:15:18.052Z,99.90
2017-04-01T07:16:24.864Z,99.90
2017-04-01T07:17:30.836Z,99.90
2017-04-01T07:18:37.424Z,99.90
2017-04-01T07:19:43.441Z,99.90
2017-04-01T07:20:49.386Z,99.90
2017-04-01T07:21:55.459Z,99.90
2017-04-01T07:23:01.485Z,99.90
2017-04-01T07:24:08.095Z,99.90
2017-04-01T07:25:14.152Z,99.90
2017-04-01T07:26:20.307Z,99.90
2017-04-01T07:27:26.248Z,99.90
2017-04-01T07:28:39.419Z,99.90
2017-04-01T07:29:45.802Z,99.90
2017-04-01T07:30:52.417Z,99.90
2017-04-01T07:31:58.659Z,99.90
2017-04-01T07:33:05.497Z,99.90
2017-04-01T07:34:11.806Z,99.90
2017-04-01T07:35:18.371Z,99.90
2017-04-01T07:36:26.329Z,99.90
2017-04-01T07:37:32.764Z,99.90
2017-04-01T07:38:39.530Z,99.90
2017-04-01T07:39:47.502Z,99.90
2017-04-01T07:40:54.045Z,99.90
2017-04-01T07:42:00.542Z,99.90
2017-04-01T07:43:06.706Z,99.90
2017-04-01T07:44:14.243Z,99.90
2017-04-01T07:45:22.831Z,99.90
2017-04-01T07:46:31.676Z,99.90
2017-04-01T07:47:40.929Z,99.90
2017-04-01T07:48:49.632Z,99.90
2017-04-01T07:49:59.000Z,99.90
2017-04-01T07:51:06.436Z,99.90
2017-04-01T07:52:14.085Z,99.90
2017-04-01T07:53:23.328Z,99.90
2017-04-01T07:54:32.247Z,99.90
2017-04-01T07:55:40.117Z,99.90
2017-04-01T07:56:50.215Z,99.90
2017-04-01T07:57:59.481Z,99.90
2017-04-01T07:59:11.293Z,99.90
2017-04-01T08:00:23.557Z,99.90
2017-04-01T08:01:29.963Z,99.90
2017-04-01T08:02:36.442Z,99.90
2017-04-01T08:03:42.483Z,99.90
2017-04-01T08:04:48.420Z,99.90
2017-04-01T08:05:54.460Z,99.90
2017-04-01T08:07:00.443Z,99.90
2017-04-01T08:08:06.569Z,99.90
2017-04-01T08:09:12.709Z,99.90
2017-04-01T08:10:18.624Z,99.90
2017-04-01T08:11:24.611Z,99.90
2017-04-01T08:12:30.575Z,99.90
2017-04-01T08:13:36.610Z,99.90
2017-04-01T08:14:42.762Z,99.90
2017-04-01T08:15:48.865Z,99.90
2017-04-01T08:16:55.878Z,99.90
2017-04-01T08:18:02.036Z,99.90
2017-04-01T08:19:08.220Z,99.90
2017-04-01T08:20:16.484Z,99.90
2017-04-01T08:21:22.543Z,99.90
2017-04-01T08:22:28.606Z,99.90
2017-04-01T08:23:34.729Z,99.90
2017-04-01T08:24:40.795Z,99.90
2017-04-01T08:25:47.516Z,99.90
2017-04-01T08:26:53.648Z,99.90
2017-04-01T08:28:06.284Z,99.90
2017-04-01T08:29:12.312Z,99.90
2017-04-01T08:30:18.304Z,99.90
2017-04-01T08:31:24.417Z,99.90
2017-04-01T08:32:31.184Z,99.90
2017-04-01T08:33:37.186Z,99.90
2017-04-01T08:34:43.401Z,99.90
2017-04-01T08:35:51.414Z,99.90
2017-04-01T08:36:57.625Z,99.90
2017-04-01T08:38:03.550Z,99.90
2017-04-01T08:39:09.691Z,99.90
2017-04-01T08:40:15.708Z,99.90
2017-04-01T08:41:21.824Z,99.90
2017-04-01T08:42:28.029Z,99.90
2017-04-01T08:43:33.984Z,99.90
2017-04-01T08:44:40.203Z,99.90
2017-04-01T08:45:46.358Z,99.90
2017-04-01T08:46:52.417Z,99.90
2017-04-01T08:47:58.684Z,99.90
2017-04-01T08:49:04.613Z,99.90
2017-04-01T08:50:11.832Z,99.90
2017-04-01T08:51:18.210Z,99.90
2017-04-01T08:52:25.090Z,99.90
2017-04-01T08:53:31.181Z,99.90
2017-04-01T08:54:37.232Z,99.90
2017-04-01T08:55:43.275Z,99.90
2017-04-01T08:56:50.499Z,99.90
2017-04-01T08:57:56.559Z,99.90
2017-04-01T08:59:03.043Z,99.90
2017-04-01T09:00:09.092Z,99.90
2017-04-01T09:01:15.762Z,99.90
2017-04-01T09:02:21.747Z,99.90
2017-04-01T09:03:28.061Z,99.90
2017-04-01T09:04:34.048Z,99.90
2017-04-01T09:05:40.220Z,99.90
2017-04-01T09:06:46.279Z,99.90
2017-04-01T09:07:52.165Z,99.90
2017-04-01T09:08:58.272Z,99.90
2017-04-01T09:10:04.344Z,99.90
2017-04-01T09:11:10.466Z,99.90
2017-04-01T09:12:18.035Z,99.90
2017-04-01T09:13:24.177Z,99.90
2017-04-01T09:14:30.204Z,99.90
2017-04-01T09:15:36.281Z,99.90
2017-04-01T09:16:42.273Z,99.90
2017-04-01T09:17:48.332Z,99.90
2017-04-01T09:18:54.417Z,99.90
2017-04-01T09:20:00.522Z,99.90
2017-04-01T09:21:07.536Z,99.90
2017-04-01T09:22:13.677Z,99.90
2017-04-01T09:23:19.667Z,99.90
2017-04-01T09:24:25.889Z,99.90
2017-04-01T09:25:32.120Z,99.90
2017-04-01T09:26:38.252Z,99.90
2017-04-01T09:27:44.245Z,99.90
2017-04-01T09:28:50.283Z,99.90
2017-04-01T09:29:56.333Z,99.90
2017-04-01T09:31:02.374Z,99.90
2017-04-01T09:32:08.698Z,99.90
2017-04-01T09:33:14.635Z,99.90
2017-04-01T09:34:20.783Z,99.90
2017-04-01T09:35:26.856Z,99.90
2017-04-01T09:36:33.008Z,99.90
2017-04-01T09:37:39.407Z,99.90
2017-04-01T09:38:45.629Z,99.90
2017-04-01T09:39:51.584Z,99.90
2017-04-01T09:40:57.752Z,99.90
2017-04-01T09:42:03.934Z,99.90
2017-04-01T09:43:10.059Z,99.90
2017-04-01T09:44:16.044Z,99.90
2017-04-01T09:45:22.327Z,99.90
2017-04-01T09:46:28.434Z,99.90
2017-04-01T09:47:34.451Z,99.90
2017-04-01T09:48:40.692Z,99.90
2017-04-01T09:49:46.797Z,99.90
2017-04-01T09:50:52.862Z,99.90
2017-04-01T09:51:58.952Z,99.90
2017-04-01T09:53:05.035Z,99.50
2017-04-01T09:54:11.848Z,97.60
2017-04-01T09:55:17.905Z,97.40
2017-04-01T09:56:23.894Z,97.80
2017-04-01T09:57:32.235Z,98.30
2017-04-01T09:58:38.564Z,98.00
2017-04-01T09:59:44.709Z,98.70
2017-04-01T10:00:51.024Z,99.80
2017-04-01T10:01:56.996Z,98.80
2017-04-01T10:03:02.985Z,99.40
2017-04-01T10:04:09.074Z,99.50
2017-04-01T10:05:15.168Z,99.90
2017-04-01T10:06:21.181Z,99.90
2017-04-01T10:07:27.081Z,99.50
2017-04-01T10:08:33.185Z,99.90
2017-04-01T10:09:39.288Z,99.90
2017-04-01T10:10:45.458Z,99.90
2017-04-01T10:11:51.564Z,99.90
2017-04-01T10:12:57.572Z,99.90
2017-04-01T10:14:03.519Z,99.90
2017-04-01T10:15:09.607Z,99.90
2017-04-01T10:16:16.605Z,99.90
2017-04-01T10:17:23.032Z,99.20
2017-04-01T10:18:29.052Z,97.80
2017-04-01T10:19:35.035Z,99.60
2017-04-01T10:20:41.080Z,99.90
2017-04-01T10:21:47.236Z,99.90
2017-04-01T10:22:53.476Z,99.40
2017-04-01T10:23:59.563Z,99.90
2017-04-01T10:25:05.575Z,99.70
2017-04-01T10:26:11.606Z,99.90
2017-04-01T10:27:17.780Z,99.90
2017-04-01T10:28:23.860Z,99.90
2017-04-01T10:29:29.881Z,99.90
2017-04-01T10:30:36.140Z,99.90
2017-04-01T10:31:42.123Z,99.90
2017-04-01T10:32:49.164Z,99.90
2017-04-01T10:33:55.194Z,99.90
2017-04-01T10:35:01.043Z,99.90
2017-04-01T10:36:07.027Z,99.90
2017-04-01T10:37:13.107Z,99.60
2017-04-01T10:38:19.188Z,99.90
2017-04-01T10:39:25.171Z,99.90
2017-04-01T10:40:31.228Z,99.90
2017-04-01T10:41:37.797Z,99.90
2017-04-01T10:42:43.776Z,99.90
2017-04-01T10:43:49.926Z,99.70
2017-04-01T10:44:55.944Z,99.90
2017-04-01T10:46:02.036Z,99.90
2017-04-01T10:47:08.221Z,99.90
2017-04-01T10:48:14.328Z,99.90
2017-04-01T10:49:20.744Z,99.90
2017-04-01T10:50:26.671Z,99.90
2017-04-01T10:51:32.826Z,99.90
2017-04-01T10:52:38.894Z,99.70
2017-04-01T10:53:44.959Z,99.70
2017-04-01T10:54:51.193Z,99.90
2017-04-01T10:55:57.223Z,99.90
2017-04-01T10:57:03.412Z,99.90
2017-04-01T10:58:09.602Z,99.90
2017-04-01T10:59:15.680Z,99.50
2017-04-01T11:00:22.095Z,99.40
2017-04-01T11:01:28.004Z,99.30
2017-04-01T11:02:34.388Z,98.30
2017-04-01T11:03:40.433Z,99.20
2017-04-01T11:04:46.439Z,98.40
2017-04-01T11:05:52.739Z,98.30
2017-04-01T11:06:58.741Z,98.80
2017-04-01T11:08:04.850Z,99.60
2017-04-01T11:09:10.863Z,99.20
2017-04-01T11:10:16.985Z,99.70
2017-04-01T11:11:23.028Z,99.30
2017-04-01T11:12:29.836Z,99.20
2017-04-01T11:13:36.005Z,99.30
2017-04-01T11:14:42.017Z,99.70
2017-04-01T11:15:48.008Z,99.30
2017-04-01T11:16:54.167Z,98.90
2017-04-01T11:18:00.088Z,98.80
2017-04-01T11:19:06.177Z,98.60
2017-04-01T11:20:12.280Z,99.10
2017-04-01T11:21:18.374Z,98.40
2017-04-01T11:22:24.728Z,98.10
2017-04-01T11:23:30.685Z,98.00
2017-04-01T11:24:36.800Z,96.40
2017-04-01T11:25:42.727Z,96.70
2017-04-01T11:26:49.411Z,96.60
2017-04-01T11:27:55.674Z,95.90
2017-04-01T11:29:03.504Z,95.50
2017-04-01T11:30:09.669Z,93.90
2017-04-01T11:31:15.719Z,94.40
2017-04-01T11:32:21.701Z,94.10
2017-04-01T11:33:27.749Z,93.40
2017-04-01T11:34:33.736Z,94.10
2017-04-01T11:35:39.798Z,94.40
2017-04-01T11:36:45.821Z,92.50
2017-04-01T11:37:51.719Z,91.70
2017-04-01T11:38:58.004Z,93.50
2017-04-01T11:40:03.979Z,92.90
2017-04-01T11:41:11.661Z,93.00
2017-04-01T11:42:17.705Z,93.30
2017-04-01T11:43:23.803Z,94.20
2017-04-01T11:44:30.218Z,93.10
2017-04-01T11:45:36.362Z,92.80
2017-04-01T11:46:42.428Z,93.10
2017-04-01T11:47:49.079Z,92.80
2017-04-01T11:48:55.296Z,91.60
2017-04-01T11:50:01.424Z,91.70
2017-04-01T11:51:07.332Z,90.20
2017-04-01T11:52:13.533Z,90.10
2017-04-01T11:53:19.675Z,88.90
2017-04-01T11:54:25.743Z,85.10
2017-04-01T11:55:31.731Z,86.10
2017-04-01T11:56:37.656Z,86.40
2017-04-01T11:57:43.557Z,86.20
2017-04-01T11:58:49.684Z,86.10
2017-04-01T11:59:55.778Z,87.60
2017-04-01T12:01:01.910Z,85.80
2017-04-01T12:02:07.842Z,85.60
2017-04-01T12:03:13.864Z,85.00
2017-04-01T12:04:19.895Z,83.50
2017-04-01T12:05:25.924Z,84.30
2017-04-01T12:06:32.853Z,85.70
2017-04-01T12:07:38.968Z,84.20
2017-04-01T12:08:45.019Z,83.70
2017-04-01T12:09:51.060Z,84.20
2017-04-01T12:10:57.023Z,84.80
2017-04-01T12:12:03.253Z,86.90
2017-04-01T12:13:09.169Z,85.90
2017-04-01T12:14:15.831Z,86.00
2017-04-01T12:15:21.876Z,87.60
2017-04-01T12:16:27.975Z,84.70
2017-04-01T12:17:34.304Z,84.60
2017-04-01T12:18:40.427Z,84.10
2017-04-01T12:19:46.464Z,84.40
2017-04-01T12:20:52.543Z,83.50
2017-04-01T12:21:58.507Z,83.30
2017-04-01T12:23:04.847Z,85.40
2017-04-01T12:24:10.869Z,85.20
2017-04-01T12:25:17.004Z,84.60
2017-04-01T12:26:23.024Z,83.00
2017-04-01T12:27:29.766Z,83.40
2017-04-01T12:28:36.117Z,84.30
2017-04-01T12:29:42.160Z,84.70
2017-04-01T12:30:48.021Z,84.00
2017-04-01T12:31:55.199Z,84.60
2017-04-01T12:33:01.188Z,84.30
2017-04-01T12:34:07.282Z,85.30
2017-04-01T12:35:13.302Z,85.30
2017-04-01T12:36:19.412Z,84.20
2017-04-01T12:37:25.287Z,82.80
2017-04-01T12:38:31.938Z,83.50
2017-04-01T12:39:38.053Z,85.00
2017-04-01T12:40:44.861Z,85.00
2017-04-01T12:41:50.881Z,85.00
2017-04-01T12:42:56.895Z,84.50
2017-04-01T12:44:02.831Z,84.60
2017-04-01T12:45:09.209Z,85.80
2017-04-01T12:46:15.239Z,84.10
2017-04-01T12:47:21.554Z,83.90
2017-04-01T12:48:27.524Z,84.90
2017-04-01T12:49:33.551Z,84.20
2017-04-01T12:50:39.956Z,84.30
2017-04-01T12:51:45.788Z,83.50
2017-04-01T12:52:51.995Z,83.80
2017-04-01T12:53:58.648Z,82.20
2017-04-01T12:55:04.674Z,80.00
2017-04-01T12:56:11.104Z,80.90
2017-04-01T12:57:17.109Z,81.80
2017-04-01T12:58:23.529Z,82.30
2017-04-01T12:59:29.396Z,80.30
2017-04-01T13:00:35.464Z,79.60
2017-04-01T13:01:41.509Z,80.30
2017-04-01T13:02:47.464Z,81.10
2017-04-01T13:03:53.674Z,80.10
2017-04-01T13:04:59.647Z,80.40
2017-04-01T13:06:05.641Z,79.60
2017-04-01T13:07:11.883Z,81.30
2017-04-01T13:08:18.537Z,78.30
2017-04-01T13:09:24.547Z,79.50
2017-04-01T13:10:30.762Z,82.50
2017-04-01T13:11:36.660Z,81.00
2017-04-01T13:12:43.448Z,80.70
2017-04-01T13:13:49.347Z,80.80
2017-04-01T13:14:55.471Z,79.30
2017-04-01T13:16:01.724Z,80.10
2017-04-01T13:17:07.584Z,78.90
2017-04-01T13:18:13.663Z,78.90
2017-04-01T13:19:20.516Z,79.40
2017-04-01T13:20:26.507Z,78.90
2017-04-01T13:21:32.737Z,79.30
2017-04-01T13:22:40.420Z,79.90
2017-04-01T13:23:46.528Z,81.00
2017-04-01T13:24:52.499Z,80.90
2017-04-01T13:25:58.456Z,82.20
2017-04-01T13:27:04.632Z,83.00
2017-04-01T13:28:15.060Z,84.00
2017-04-01T13:29:21.357Z,82.80
2017-04-01T13:30:27.348Z,82.80
2017-04-01T13:31:33.724Z,83.20
2017-04-01T13:32:41.363Z,83.80
2017-04-01T13:33:47.572Z,82.90
2017-04-01T13:34:59.524Z,83.80
2017-04-01T13:36:06.723Z,85.30
2017-04-01T13:37:13.382Z,84.70
2017-04-01T13:38:19.633Z,85.20
2017-04-01T13:39:25.539Z,85.40
2017-04-01T13:40:31.899Z,85.50
2017-04-01T13:41:37.988Z,85.50
2017-04-01T13:42:44.393Z,85.20
2017-04-01T13:43:50.534Z,85.70
2017-04-01T13:44:57.608Z,86.20
2017-04-01T13:46:03.947Z,85.80
2017-04-01T13:47:11.041Z,87.20
2017-04-01T13:48:17.324Z,85.40
2017-04-01T13:49:24.215Z,85.10
2017-04-01T13:50:30.414Z,85.30
2017-04-01T13:51:36.796Z,85.70
2017-04-01T13:52:43.197Z,85.30
2017-04-01T13:53:49.207Z,86.60
2017-04-01T13:54:55.216Z,86.40
2017-04-01T13:56:01.371Z,85.90
2017-04-01T13:57:07.415Z,85.60
2017-04-01T13:58:13.860Z,85.90
2017-04-01T13:59:20.546Z,86.20
2017-04-01T14:00:26.652Z,86.20
2017-04-01T14:01:32.717Z,85.70
2017-04-01T14:02:38.793Z,87.30
2017-04-01T14:03:44.796Z,88.30
2017-04-01T14:04:51.111Z,87.80
2017-04-01T14:05:57.199Z,87.80
2017-04-01T14:07:03.422Z,88.20
2017-04-01T14:08:09.752Z,89.90
2017-04-01T14:09:16.279Z,90.20
2017-04-01T14:10:23.219Z,90.40
2017-04-01T14:11:29.765Z,90.40
2017-04-01T14:12:35.927Z,90.20
2017-04-01T14:13:42.382Z,90.30
2017-04-01T14:14:49.418Z,90.40